sensor_id;sensor_type;location;lat;lon;timestamp;P1;durP1;ratioP1;P2;durP2;ratioP2
73154;SDS011;66341;52.418;7.382;2023-02-01T00:01:36;10.93;;;8.42;;
73154;SDS011;66341;52.418;7.382;2023-02-01T00:04:02;9.08;;;7.92;;
73154;SDS011;66341;52.418;7.382;2023-02-01T00:06:28;7.77;;;6.44;;
73154;SDS011;66341;52.418;7.382;2023-02-01T00:08:54;8.86;;;6.99;;
73154;SDS011;66341;52.418;7.382;2023-02-01T00:11:21;8.21;;;6.48;;
73154;SDS011;66341;52.418;7.382;2023-02-01T00:13:47;8.18;;;6.16;;
73154;SDS011;66341;52.418;7.382;2023-02-01T00:16:13;8.93;;;6.60;;
73154;SDS011;66341;52.418;7.382;2023-02-01T00:18:43;8.64;;;6.25;;
73154;SDS011;66341;52.418;7.382;2023-02-01T00:24:12;9.79;;;6.98;;
73154;SDS011;66341;52.418;7.382;2023-02-01T00:26:42;10.14;;;7.29;;
73154;SDS011;66341;52.418;7.382;2023-02-01T00:29:13;10.09;;;7.10;;
73154;SDS011;66341;52.418;7.382;2023-02-01T00:34:57;9.55;;;6.66;;
73154;SDS011;66341;52.418;7.382;2023-02-01T00:40:07;8.86;;;6.29;;
73154;SDS011;66341;52.418;7.382;2023-02-01T00:45:13;9.08;;;6.43;;
73154;SDS011;66341;52.418;7.382;2023-02-01T00:47:39;9.51;;;6.59;;
73154;SDS011;66341;52.418;7.382;2023-02-01T00:50:04;9.63;;;6.68;;
73154;SDS011;66341;52.418;7.382;2023-02-01T00:52:30;9.92;;;6.90;;
73154;SDS011;66341;52.418;7.382;2023-02-01T00:54:56;9.80;;;6.77;;
73154;SDS011;66341;52.418;7.382;2023-02-01T00:59:57;9.52;;;6.76;;
73154;SDS011;66341;52.418;7.382;2023-02-01T01:08:06;9.79;;;6.75;;
73154;SDS011;66341;52.418;7.382;2023-02-01T01:13:07;9.78;;;6.70;;
73154;SDS011;66341;52.418;7.382;2023-02-01T01:18:11;9.15;;;6.29;;
73154;SDS011;66341;52.418;7.382;2023-02-01T01:20:39;9.30;;;6.53;;
73154;SDS011;66341;52.418;7.382;2023-02-01T01:29:15;9.87;;;6.72;;
73154;SDS011;66341;52.418;7.382;2023-02-01T01:31:41;8.90;;;6.11;;
73154;SDS011;66341;52.418;7.382;2023-02-01T01:34:07;8.57;;;5.89;;
73154;SDS011;66341;52.418;7.382;2023-02-01T01:39:52;9.91;;;6.76;;
73154;SDS011;66341;52.418;7.382;2023-02-01T01:42:20;10.35;;;6.93;;
73154;SDS011;66341;52.418;7.382;2023-02-01T01:45:02;10.12;;;6.77;;
73154;SDS011;66341;52.418;7.382;2023-02-01T01:47:37;9.47;;;6.34;;
73154;SDS011;66341;52.418;7.382;2023-02-01T01:56:13;9.97;;;6.65;;
73154;SDS011;66341;52.418;7.382;2023-02-01T01:58:40;10.77;;;7.15;;
73154;SDS011;66341;52.418;7.382;2023-02-01T02:07:13;9.18;;;6.24;;
73154;SDS011;66341;52.418;7.382;2023-02-01T02:09:44;10.19;;;6.92;;
73154;SDS011;66341;52.418;7.382;2023-02-01T02:12:10;9.25;;;6.39;;
73154;SDS011;66341;52.418;7.382;2023-02-01T02:45:30;8.68;;;6.01;;
73154;SDS011;66341;52.418;7.382;2023-02-01T03:00:06;9.63;;;6.57;;
73154;SDS011;66341;52.418;7.382;2023-02-01T03:05:56;11.26;;;7.43;;
73154;SDS011;66341;52.418;7.382;2023-02-01T03:08:25;10.42;;;6.93;;
73154;SDS011;66341;52.418;7.382;2023-02-01T03:10:58;10.23;;;6.75;;
73154;SDS011;66341;52.418;7.382;2023-02-01T03:21:17;11.04;;;7.14;;
73154;SDS011;66341;52.418;7.382;2023-02-01T03:29:11;12.05;;;7.85;;
73154;SDS011;66341;52.418;7.382;2023-02-01T03:31:40;10.89;;;7.19;;
73154;SDS011;66341;52.418;7.382;2023-02-01T03:34:05;10.63;;;7.08;;
73154;SDS011;66341;52.418;7.382;2023-02-01T03:36:43;10.79;;;7.15;;
73154;SDS011;66341;52.418;7.382;2023-02-01T03:39:25;10.15;;;6.71;;
73154;SDS011;66341;52.418;7.382;2023-02-01T03:42:06;10.46;;;7.11;;
73154;SDS011;66341;52.418;7.382;2023-02-01T03:44:57;9.42;;;6.56;;
73154;SDS011;66341;52.418;7.382;2023-02-01T03:47:30;9.34;;;6.44;;
73154;SDS011;66341;52.418;7.382;2023-02-01T03:50:03;9.56;;;6.55;;
73154;SDS011;66341;52.418;7.382;2023-02-01T03:52:32;9.73;;;6.82;;
73154;SDS011;66341;52.418;7.382;2023-02-01T03:58:07;8.87;;;6.30;;
73154;SDS011;66341;52.418;7.382;2023-02-01T04:03:21;9.20;;;6.42;;
73154;SDS011;66341;52.418;7.382;2023-02-01T04:05:47;9.70;;;6.67;;
73154;SDS011;66341;52.418;7.382;2023-02-01T04:08:14;9.15;;;6.36;;
73154;SDS011;66341;52.418;7.382;2023-02-01T04:10:40;8.47;;;5.93;;
73154;SDS011;66341;52.418;7.382;2023-02-01T04:13:13;9.78;;;6.69;;
73154;SDS011;66341;52.418;7.382;2023-02-01T04:15:38;10.95;;;7.44;;
73154;SDS011;66341;52.418;7.382;2023-02-01T04:20:34;10.85;;;7.24;;
73154;SDS011;66341;52.418;7.382;2023-02-01T04:29:08;9.82;;;6.75;;
73154;SDS011;66341;52.418;7.382;2023-02-01T04:34:29;9.91;;;6.69;;
73154;SDS011;66341;52.418;7.382;2023-02-01T04:36:55;9.80;;;6.67;;
73154;SDS011;66341;52.418;7.382;2023-02-01T04:41:56;10.67;;;7.23;;
73154;SDS011;66341;52.418;7.382;2023-02-01T04:44:35;9.80;;;6.61;;
73154;SDS011;66341;52.418;7.382;2023-02-01T04:47:07;9.33;;;6.37;;
73154;SDS011;66341;52.418;7.382;2023-02-01T04:49:32;9.15;;;6.32;;
73154;SDS011;66341;52.418;7.382;2023-02-01T04:55:02;10.44;;;7.07;;
73154;SDS011;66341;52.418;7.382;2023-02-01T05:00:31;9.32;;;6.38;;
73154;SDS011;66341;52.418;7.382;2023-02-01T05:03:09;9.46;;;6.55;;
73154;SDS011;66341;52.418;7.382;2023-02-01T05:05:34;9.97;;;6.80;;
73154;SDS011;66341;52.418;7.382;2023-02-01T05:10:32;9.16;;;6.45;;
73154;SDS011;66341;52.418;7.382;2023-02-01T05:13:08;9.33;;;6.37;;
73154;SDS011;66341;52.418;7.382;2023-02-01T05:15:52;10.25;;;6.97;;
73154;SDS011;66341;52.418;7.382;2023-02-01T05:18:18;9.80;;;6.71;;
73154;SDS011;66341;52.418;7.382;2023-02-01T05:21:00;9.33;;;6.50;;
73154;SDS011;66341;52.418;7.382;2023-02-01T05:23:26;8.63;;;6.10;;
73154;SDS011;66341;52.418;7.382;2023-02-01T05:29:01;8.44;;;6.16;;
73154;SDS011;66341;52.418;7.382;2023-02-01T05:31:27;8.90;;;6.46;;
73154;SDS011;66341;52.418;7.382;2023-02-01T05:34:02;8.02;;;5.90;;
73154;SDS011;66341;52.418;7.382;2023-02-01T05:36:27;7.91;;;5.92;;
73154;SDS011;66341;52.418;7.382;2023-02-01T05:38:54;7.16;;;5.39;;
73154;SDS011;66341;52.418;7.382;2023-02-01T05:41:20;8.25;;;6.11;;
73154;SDS011;66341;52.418;7.382;2023-02-01T05:49:20;8.54;;;6.28;;
73154;SDS011;66341;52.418;7.382;2023-02-01T05:51:47;7.55;;;5.72;;
73154;SDS011;66341;52.418;7.382;2023-02-01T05:54:13;8.30;;;6.30;;
73154;SDS011;66341;52.418;7.382;2023-02-01T05:56:39;7.94;;;6.01;;
73154;SDS011;66341;52.418;7.382;2023-02-01T05:59:06;7.26;;;5.65;;
73154;SDS011;66341;52.418;7.382;2023-02-01T06:01:32;8.43;;;6.29;;
73154;SDS011;66341;52.418;7.382;2023-02-01T06:03:57;8.35;;;6.12;;
73154;SDS011;66341;52.418;7.382;2023-02-01T06:06:23;7.66;;;5.78;;
73154;SDS011;66341;52.418;7.382;2023-02-01T06:08:48;7.61;;;5.76;;
73154;SDS011;66341;52.418;7.382;2023-02-01T06:11:13;7.14;;;5.31;;
73154;SDS011;66341;52.418;7.382;2023-02-01T06:13:39;8.32;;;6.18;;
73154;SDS011;66341;52.418;7.382;2023-02-01T06:16:04;7.85;;;5.83;;
73154;SDS011;66341;52.418;7.382;2023-02-01T06:18:33;8.25;;;5.99;;
73154;SDS011;66341;52.418;7.382;2023-02-01T06:20:59;8.74;;;6.44;;
73154;SDS011;66341;52.418;7.382;2023-02-01T06:23:30;8.25;;;6.08;;
73154;SDS011;66341;52.418;7.382;2023-02-01T06:26:00;8.19;;;5.86;;
73154;SDS011;66341;52.418;7.382;2023-02-01T06:28:30;9.28;;;6.56;;
73154;SDS011;66341;52.418;7.382;2023-02-01T06:33:26;8.56;;;6.13;;
73154;SDS011;66341;52.418;7.382;2023-02-01T06:38:34;8.68;;;6.17;;
73154;SDS011;66341;52.418;7.382;2023-02-01T06:43:53;8.93;;;6.21;;
73154;SDS011;66341;52.418;7.382;2023-02-01T06:46:24;9.88;;;6.87;;
73154;SDS011;66341;52.418;7.382;2023-02-01T06:51:27;8.49;;;6.14;;
73154;SDS011;66341;52.418;7.382;2023-02-01T06:59:56;8.77;;;6.28;;
73154;SDS011;66341;52.418;7.382;2023-02-01T07:05:41;8.56;;;6.12;;
73154;SDS011;66341;52.418;7.382;2023-02-01T07:08:12;9.68;;;6.88;;
73154;SDS011;66341;52.418;7.382;2023-02-01T07:19:48;7.84;;;5.83;;
73154;SDS011;66341;52.418;7.382;2023-02-01T07:22:16;8.08;;;5.91;;
73154;SDS011;66341;52.418;7.382;2023-02-01T07:24:42;7.71;;;5.57;;
73154;SDS011;66341;52.418;7.382;2023-02-01T07:27:07;7.75;;;5.71;;
73154;SDS011;66341;52.418;7.382;2023-02-01T07:29:33;7.44;;;5.48;;
73154;SDS011;66341;52.418;7.382;2023-02-01T07:32:16;8.56;;;6.22;;
73154;SDS011;66341;52.418;7.382;2023-02-01T07:34:43;8.59;;;6.33;;
73154;SDS011;66341;52.418;7.382;2023-02-01T07:37:09;7.80;;;5.75;;
73154;SDS011;66341;52.418;7.382;2023-02-01T07:39:36;8.50;;;6.21;;
73154;SDS011;66341;52.418;7.382;2023-02-01T07:42:02;7.10;;;5.36;;
73154;SDS011;66341;52.418;7.382;2023-02-01T07:44:31;7.60;;;5.62;;
73154;SDS011;66341;52.418;7.382;2023-02-01T07:46:57;7.72;;;5.65;;
73154;SDS011;66341;52.418;7.382;2023-02-01T07:49:38;7.53;;;5.67;;
73154;SDS011;66341;52.418;7.382;2023-02-01T07:52:07;7.49;;;5.65;;
73154;SDS011;66341;52.418;7.382;2023-02-01T07:54:32;6.84;;;5.24;;
73154;SDS011;66341;52.418;7.382;2023-02-01T07:56:58;7.77;;;5.80;;
73154;SDS011;66341;52.418;7.382;2023-02-01T07:59:38;7.92;;;6.02;;
73154;SDS011;66341;52.418;7.382;2023-02-01T08:02:39;7.00;;;5.34;;
73154;SDS011;66341;52.418;7.382;2023-02-01T08:05:05;6.86;;;5.30;;
73154;SDS011;66341;52.418;7.382;2023-02-01T08:07:31;6.85;;;5.30;;
73154;SDS011;66341;52.418;7.382;2023-02-01T08:09:58;6.69;;;5.23;;
73154;SDS011;66341;52.418;7.382;2023-02-01T08:12:26;6.39;;;5.11;;
73154;SDS011;66341;52.418;7.382;2023-02-01T08:17:21;7.15;;;5.54;;
73154;SDS011;66341;52.418;7.382;2023-02-01T08:19:47;7.44;;;5.56;;
73154;SDS011;66341;52.418;7.382;2023-02-01T08:22:20;7.33;;;5.44;;
73154;SDS011;66341;52.418;7.382;2023-02-01T08:24:49;7.36;;;5.47;;
73154;SDS011;66341;52.418;7.382;2023-02-01T08:27:18;7.56;;;5.69;;
73154;SDS011;66341;52.418;7.382;2023-02-01T08:29:44;7.34;;;5.39;;
73154;SDS011;66341;52.418;7.382;2023-02-01T08:32:10;7.87;;;5.72;;
73154;SDS011;66341;52.418;7.382;2023-02-01T08:34:35;8.00;;;5.89;;
73154;SDS011;66341;52.418;7.382;2023-02-01T08:37:04;7.63;;;5.68;;
73154;SDS011;66341;52.418;7.382;2023-02-01T08:39:30;6.78;;;5.19;;
73154;SDS011;66341;52.418;7.382;2023-02-01T08:42:15;7.06;;;5.42;;
73154;SDS011;66341;52.418;7.382;2023-02-01T08:44:59;6.17;;;4.85;;
73154;SDS011;66341;52.418;7.382;2023-02-01T08:47:24;6.49;;;5.07;;
73154;SDS011;66341;52.418;7.382;2023-02-01T08:49:52;17.04;;;14.26;;
73154;SDS011;66341;52.418;7.382;2023-02-01T08:55:02;16.21;;;16.16;;
73154;SDS011;66341;52.418;7.382;2023-02-01T08:57:27;22.26;;;22.18;;
73154;SDS011;66341;52.418;7.382;2023-02-01T09:02:41;33.35;;;33.34;;
73154;SDS011;66341;52.418;7.382;2023-02-01T09:05:24;33.69;;;33.64;;
73154;SDS011;66341;52.418;7.382;2023-02-01T09:07:53;39.69;;;39.61;;
73154;SDS011;66341;52.418;7.382;2023-02-01T09:13:09;29.32;;;29.22;;
73154;SDS011;66341;52.418;7.382;2023-02-01T09:15:44;31.88;;;31.88;;
73154;SDS011;66341;52.418;7.382;2023-02-01T09:18:10;18.93;;;18.93;;
73154;SDS011;66341;52.418;7.382;2023-02-01T09:23:36;10.74;;;10.74;;
73154;SDS011;66341;52.418;7.382;2023-02-01T09:26:02;14.72;;;14.72;;
73154;SDS011;66341;52.418;7.382;2023-02-01T09:28:29;13.61;;;13.61;;
73154;SDS011;66341;52.418;7.382;2023-02-01T09:31:11;28.68;;;28.68;;
73154;SDS011;66341;52.418;7.382;2023-02-01T09:33:40;24.74;;;24.74;;
73154;SDS011;66341;52.418;7.382;2023-02-01T09:36:05;23.55;;;23.55;;
73154;SDS011;66341;52.418;7.382;2023-02-01T09:38:31;11.05;;;11.04;;
73154;SDS011;66341;52.418;7.382;2023-02-01T09:46:43;9.07;;;9.00;;
73154;SDS011;66341;52.418;7.382;2023-02-01T09:49:12;10.95;;;10.95;;
73154;SDS011;66341;52.418;7.382;2023-02-01T09:54:26;6.93;;;6.84;;
73154;SDS011;66341;52.418;7.382;2023-02-01T09:59:44;7.08;;;7.03;;
73154;SDS011;66341;52.418;7.382;2023-02-01T10:02:14;6.59;;;6.59;;
73154;SDS011;66341;52.418;7.382;2023-02-01T10:04:44;5.58;;;5.54;;
73154;SDS011;66341;52.418;7.382;2023-02-01T10:10:20;7.90;;;7.69;;
73154;SDS011;66341;52.418;7.382;2023-02-01T10:12:58;7.19;;;7.15;;
73154;SDS011;66341;52.418;7.382;2023-02-01T10:15:35;6.40;;;6.27;;
73154;SDS011;66341;52.418;7.382;2023-02-01T10:20:46;6.71;;;6.70;;
73154;SDS011;66341;52.418;7.382;2023-02-01T10:28:36;5.52;;;5.34;;
73154;SDS011;66341;52.418;7.382;2023-02-01T10:31:04;5.50;;;5.14;;
73154;SDS011;66341;52.418;7.382;2023-02-01T10:33:34;11.70;;;11.49;;
73154;SDS011;66341;52.418;7.382;2023-02-01T10:38:33;10.30;;;10.30;;
73154;SDS011;66341;52.418;7.382;2023-02-01T10:41:35;9.99;;;9.99;;
73154;SDS011;66341;52.418;7.382;2023-02-01T10:43:54;7.58;;;7.53;;
73154;SDS011;66341;52.418;7.382;2023-02-01T10:48:52;7.02;;;6.56;;
73154;SDS011;66341;52.418;7.382;2023-02-01T10:51:21;6.84;;;6.44;;
73154;SDS011;66341;52.418;7.382;2023-02-01T10:56:23;6.08;;;5.44;;
73154;SDS011;66341;52.418;7.382;2023-02-01T10:58:49;6.06;;;5.70;;
73154;SDS011;66341;52.418;7.382;2023-02-01T11:01:18;6.16;;;5.61;;
73154;SDS011;66341;52.418;7.382;2023-02-01T11:06:18;13.91;;;13.91;;
73154;SDS011;66341;52.418;7.382;2023-02-01T11:08:48;8.56;;;8.56;;
73154;SDS011;66341;52.418;7.382;2023-02-01T11:11:16;6.58;;;6.56;;
73154;SDS011;66341;52.418;7.382;2023-02-01T11:13:42;5.38;;;5.04;;
73154;SDS011;66341;52.418;7.382;2023-02-01T11:16:13;6.19;;;5.66;;
73154;SDS011;66341;52.418;7.382;2023-02-01T11:18:42;5.56;;;4.90;;
73154;SDS011;66341;52.418;7.382;2023-02-01T11:21:09;5.12;;;4.43;;
73154;SDS011;66341;52.418;7.382;2023-02-01T11:23:40;5.44;;;4.69;;
73154;SDS011;66341;52.418;7.382;2023-02-01T11:26:22;6.96;;;6.09;;
73154;SDS011;66341;52.418;7.382;2023-02-01T11:29:05;5.48;;;5.06;;
73154;SDS011;66341;52.418;7.382;2023-02-01T11:34:24;5.36;;;5.02;;
73154;SDS011;66341;52.418;7.382;2023-02-01T11:37:04;4.73;;;4.29;;
73154;SDS011;66341;52.418;7.382;2023-02-01T11:39:41;4.67;;;4.17;;
73154;SDS011;66341;52.418;7.382;2023-02-01T11:42:14;5.09;;;4.32;;
73154;SDS011;66341;52.418;7.382;2023-02-01T11:44:42;4.73;;;4.10;;
73154;SDS011;66341;52.418;7.382;2023-02-01T12:11:45;5.34;;;4.80;;
73154;SDS011;66341;52.418;7.382;2023-02-01T12:17:05;5.31;;;4.44;;
73154;SDS011;66341;52.418;7.382;2023-02-01T12:32:35;5.56;;;4.71;;
73154;SDS011;66341;52.418;7.382;2023-02-01T12:40:47;6.30;;;5.31;;
73154;SDS011;66341;52.418;7.382;2023-02-01T12:43:43;5.76;;;4.90;;
73154;SDS011;66341;52.418;7.382;2023-02-01T12:46:21;6.55;;;5.41;;
73154;SDS011;66341;52.418;7.382;2023-02-01T12:51:15;6.06;;;5.12;;
73154;SDS011;66341;52.418;7.382;2023-02-01T12:53:50;6.89;;;5.80;;
73154;SDS011;66341;52.418;7.382;2023-02-01T12:56:52;7.45;;;6.44;;
73154;SDS011;66341;52.418;7.382;2023-02-01T12:59:31;12.09;;;10.74;;
73154;SDS011;66341;52.418;7.382;2023-02-01T13:07:34;8.82;;;8.69;;
73154;SDS011;66341;52.418;7.382;2023-02-01T13:10:11;7.21;;;6.98;;
73154;SDS011;66341;52.418;7.382;2023-02-01T13:12:54;10.13;;;9.65;;
73154;SDS011;66341;52.418;7.382;2023-02-01T13:15:28;9.73;;;9.50;;
73154;SDS011;66341;52.418;7.382;2023-02-01T13:17:58;6.43;;;6.43;;
73154;SDS011;66341;52.418;7.382;2023-02-01T13:23:34;6.23;;;6.23;;
73154;SDS011;66341;52.418;7.382;2023-02-01T13:26:02;7.40;;;7.40;;
73154;SDS011;66341;52.418;7.382;2023-02-01T13:31:13;9.14;;;9.14;;
73154;SDS011;66341;52.418;7.382;2023-02-01T13:42:13;6.17;;;6.17;;
73154;SDS011;66341;52.418;7.382;2023-02-01T13:47:43;7.46;;;7.46;;
73154;SDS011;66341;52.418;7.382;2023-02-01T13:50:16;6.60;;;6.60;;
73154;SDS011;66341;52.418;7.382;2023-02-01T13:55:55;6.28;;;6.28;;
73154;SDS011;66341;52.418;7.382;2023-02-01T13:58:32;6.64;;;6.64;;
73154;SDS011;66341;52.418;7.382;2023-02-01T14:01:44;5.82;;;5.80;;
73154;SDS011;66341;52.418;7.382;2023-02-01T14:04:02;7.04;;;7.04;;
73154;SDS011;66341;52.418;7.382;2023-02-01T14:11:45;9.04;;;9.03;;
73154;SDS011;66341;52.418;7.382;2023-02-01T14:16:40;7.78;;;7.49;;
73154;SDS011;66341;52.418;7.382;2023-02-01T14:19:18;8.77;;;8.42;;
73154;SDS011;66341;52.418;7.382;2023-02-01T14:21:48;7.99;;;7.80;;
73154;SDS011;66341;52.418;7.382;2023-02-01T14:24:20;10.68;;;10.02;;
73154;SDS011;66341;52.418;7.382;2023-02-01T14:26:50;10.15;;;10.11;;
73154;SDS011;66341;52.418;7.382;2023-02-01T14:29:26;12.73;;;12.61;;
73154;SDS011;66341;52.418;7.382;2023-02-01T14:32:00;7.27;;;7.20;;
73154;SDS011;66341;52.418;7.382;2023-02-01T14:37:23;6.51;;;6.41;;
73154;SDS011;66341;52.418;7.382;2023-02-01T14:40:04;6.00;;;5.60;;
73154;SDS011;66341;52.418;7.382;2023-02-01T14:53:11;11.44;;;10.14;;
73154;SDS011;66341;52.418;7.382;2023-02-01T15:00:51;7.05;;;6.02;;
73154;SDS011;66341;52.418;7.382;2023-02-01T15:05:43;7.40;;;6.02;;
73154;SDS011;66341;52.418;7.382;2023-02-01T15:08:14;7.82;;;6.33;;
73154;SDS011;66341;52.418;7.382;2023-02-01T15:10:44;8.72;;;6.93;;
73154;SDS011;66341;52.418;7.382;2023-02-01T15:13:19;7.66;;;6.17;;
73154;SDS011;66341;52.418;7.382;2023-02-01T15:16:05;10.01;;;8.52;;
73154;SDS011;66341;52.418;7.382;2023-02-01T15:18:35;11.52;;;10.45;;
73154;SDS011;66341;52.418;7.382;2023-02-01T15:21:01;16.64;;;15.56;;
73154;SDS011;66341;52.418;7.382;2023-02-01T15:23:27;27.23;;;25.78;;
73154;SDS011;66341;52.418;7.382;2023-02-01T15:25:53;14.70;;;13.91;;
73154;SDS011;66341;52.418;7.382;2023-02-01T15:28:19;30.98;;;30.17;;
73154;SDS011;66341;52.418;7.382;2023-02-01T15:30:52;18.87;;;18.40;;
73154;SDS011;66341;52.418;7.382;2023-02-01T15:33:19;10.99;;;10.42;;
73154;SDS011;66341;52.418;7.382;2023-02-01T15:35:46;10.94;;;10.19;;
73154;SDS011;66341;52.418;7.382;2023-02-01T15:40:56;13.44;;;12.67;;
73154;SDS011;66341;52.418;7.382;2023-02-01T15:43:24;9.20;;;8.51;;
73154;SDS011;66341;52.418;7.382;2023-02-01T15:45:52;8.18;;;7.08;;
73154;SDS011;66341;52.418;7.382;2023-02-01T15:48:22;8.40;;;7.09;;
73154;SDS011;66341;52.418;7.382;2023-02-01T15:50:50;7.20;;;5.96;;
73154;SDS011;66341;52.418;7.382;2023-02-01T15:53:20;8.16;;;6.74;;
73154;SDS011;66341;52.418;7.382;2023-02-01T15:55:51;7.00;;;6.03;;
73154;SDS011;66341;52.418;7.382;2023-02-01T15:58:19;36.99;;;34.76;;
73154;SDS011;66341;52.418;7.382;2023-02-01T16:00:56;19.03;;;18.86;;
73154;SDS011;66341;52.418;7.382;2023-02-01T16:03:26;20.06;;;20.06;;
73154;SDS011;66341;52.418;7.382;2023-02-01T16:05:59;20.33;;;20.33;;
73154;SDS011;66341;52.418;7.382;2023-02-01T16:08:27;19.59;;;19.59;;
73154;SDS011;66341;52.418;7.382;2023-02-01T16:10:54;11.60;;;11.60;;
73154;SDS011;66341;52.418;7.382;2023-02-01T16:13:20;7.37;;;7.09;;
73154;SDS011;66341;52.418;7.382;2023-02-01T16:15:46;10.10;;;10.04;;
73154;SDS011;66341;52.418;7.382;2023-02-01T16:18:13;14.34;;;14.15;;
73154;SDS011;66341;52.418;7.382;2023-02-01T16:20:40;16.29;;;16.24;;
73154;SDS011;66341;52.418;7.382;2023-02-01T16:23:07;10.26;;;10.26;;
73154;SDS011;66341;52.418;7.382;2023-02-01T16:25:33;13.56;;;13.56;;
73154;SDS011;66341;52.418;7.382;2023-02-01T16:27:59;7.28;;;7.28;;
73154;SDS011;66341;52.418;7.382;2023-02-01T16:30:24;10.02;;;10.01;;
73154;SDS011;66341;52.418;7.382;2023-02-01T16:32:54;9.86;;;9.83;;
73154;SDS011;66341;52.418;7.382;2023-02-01T16:35:22;16.51;;;16.51;;
73154;SDS011;66341;52.418;7.382;2023-02-01T16:37:50;13.74;;;13.72;;
73154;SDS011;66341;52.418;7.382;2023-02-01T16:40:16;20.25;;;20.25;;
73154;SDS011;66341;52.418;7.382;2023-02-01T16:42:49;10.70;;;10.70;;
73154;SDS011;66341;52.418;7.382;2023-02-01T16:45:15;17.92;;;17.90;;
73154;SDS011;66341;52.418;7.382;2023-02-01T16:47:42;14.65;;;14.65;;
73154;SDS011;66341;52.418;7.382;2023-02-01T16:50:21;27.85;;;27.85;;
73154;SDS011;66341;52.418;7.382;2023-02-01T16:52:48;14.15;;;14.15;;
73154;SDS011;66341;52.418;7.382;2023-02-01T16:55:18;8.37;;;8.30;;
73154;SDS011;66341;52.418;7.382;2023-02-01T16:57:44;8.22;;;8.06;;
73154;SDS011;66341;52.418;7.382;2023-02-01T17:00:11;7.67;;;7.67;;
73154;SDS011;66341;52.418;7.382;2023-02-01T17:02:38;23.86;;;23.77;;
73154;SDS011;66341;52.418;7.382;2023-02-01T17:05:07;27.58;;;27.58;;
73154;SDS011;66341;52.418;7.382;2023-02-01T17:07:33;12.69;;;12.69;;
73154;SDS011;66341;52.418;7.382;2023-02-01T17:10:00;11.62;;;11.62;;
73154;SDS011;66341;52.418;7.382;2023-02-01T17:12:29;8.21;;;8.21;;
73154;SDS011;66341;52.418;7.382;2023-02-01T17:14:55;7.71;;;7.54;;
73154;SDS011;66341;52.418;7.382;2023-02-01T17:17:22;11.26;;;11.26;;
73154;SDS011;66341;52.418;7.382;2023-02-01T17:19:49;19.33;;;19.33;;
73154;SDS011;66341;52.418;7.382;2023-02-01T17:22:22;13.80;;;13.80;;
73154;SDS011;66341;52.418;7.382;2023-02-01T17:24:48;7.09;;;7.08;;
73154;SDS011;66341;52.418;7.382;2023-02-01T17:27:17;6.06;;;6.02;;
73154;SDS011;66341;52.418;7.382;2023-02-01T17:29:49;10.44;;;10.31;;
73154;SDS011;66341;52.418;7.382;2023-02-01T17:32:17;9.24;;;9.24;;
73154;SDS011;66341;52.418;7.382;2023-02-01T17:34:44;7.19;;;7.01;;
73154;SDS011;66341;52.418;7.382;2023-02-01T17:37:24;11.19;;;11.06;;
73154;SDS011;66341;52.418;7.382;2023-02-01T17:39:51;8.70;;;8.33;;
73154;SDS011;66341;52.418;7.382;2023-02-01T17:42:19;8.65;;;8.17;;
73154;SDS011;66341;52.418;7.382;2023-02-01T17:44:45;10.71;;;10.14;;
73154;SDS011;66341;52.418;7.382;2023-02-01T17:47:11;9.70;;;9.64;;
73154;SDS011;66341;52.418;7.382;2023-02-01T17:49:36;7.46;;;7.25;;
73154;SDS011;66341;52.418;7.382;2023-02-01T17:52:03;9.24;;;8.93;;
73154;SDS011;66341;52.418;7.382;2023-02-01T17:54:30;6.90;;;6.48;;
73154;SDS011;66341;52.418;7.382;2023-02-01T17:56:55;9.39;;;8.78;;
73154;SDS011;66341;52.418;7.382;2023-02-01T17:59:24;7.55;;;7.28;;
73154;SDS011;66341;52.418;7.382;2023-02-01T18:01:50;5.72;;;5.22;;
73154;SDS011;66341;52.418;7.382;2023-02-01T18:04:17;9.27;;;8.30;;
73154;SDS011;66341;52.418;7.382;2023-02-01T18:06:44;8.37;;;7.58;;
73154;SDS011;66341;52.418;7.382;2023-02-01T18:09:10;9.53;;;8.88;;
73154;SDS011;66341;52.418;7.382;2023-02-01T18:11:35;7.23;;;6.36;;
73154;SDS011;66341;52.418;7.382;2023-02-01T18:14:01;7.85;;;7.17;;
73154;SDS011;66341;52.418;7.382;2023-02-01T18:16:28;6.28;;;5.37;;
73154;SDS011;66341;52.418;7.382;2023-02-01T18:18:55;6.95;;;5.70;;
73154;SDS011;66341;52.418;7.382;2023-02-01T18:21:47;8.39;;;6.91;;
73154;SDS011;66341;52.418;7.382;2023-02-01T18:24:13;8.19;;;6.98;;
73154;SDS011;66341;52.418;7.382;2023-02-01T18:26:40;7.94;;;6.62;;
73154;SDS011;66341;52.418;7.382;2023-02-01T18:29:06;7.05;;;5.85;;
73154;SDS011;66341;52.418;7.382;2023-02-01T18:31:32;7.18;;;5.83;;
73154;SDS011;66341;52.418;7.382;2023-02-01T18:33:59;9.66;;;7.99;;
73154;SDS011;66341;52.418;7.382;2023-02-01T18:36:25;7.00;;;6.15;;
73154;SDS011;66341;52.418;7.382;2023-02-01T18:38:51;6.97;;;6.00;;
73154;SDS011;66341;52.418;7.382;2023-02-01T18:41:22;8.08;;;6.56;;
73154;SDS011;66341;52.418;7.382;2023-02-01T18:43:48;7.95;;;6.41;;
73154;SDS011;66341;52.418;7.382;2023-02-01T18:46:15;7.15;;;5.81;;
73154;SDS011;66341;52.418;7.382;2023-02-01T18:48:41;6.95;;;5.64;;
73154;SDS011;66341;52.418;7.382;2023-02-01T18:51:11;9.03;;;7.33;;
73154;SDS011;66341;52.418;7.382;2023-02-01T18:53:38;7.30;;;6.01;;
73154;SDS011;66341;52.418;7.382;2023-02-01T18:56:04;7.98;;;6.48;;
73154;SDS011;66341;52.418;7.382;2023-02-01T18:58:29;8.64;;;7.48;;
73154;SDS011;66341;52.418;7.382;2023-02-01T19:00:56;11.94;;;11.74;;
73154;SDS011;66341;52.418;7.382;2023-02-01T19:03:23;34.61;;;34.61;;
73154;SDS011;66341;52.418;7.382;2023-02-01T19:05:53;7.73;;;7.68;;
73154;SDS011;66341;52.418;7.382;2023-02-01T19:08:20;5.82;;;5.33;;
73154;SDS011;66341;52.418;7.382;2023-02-01T19:10:45;11.85;;;11.19;;
73154;SDS011;66341;52.418;7.382;2023-02-01T19:13:11;11.10;;;11.10;;
73154;SDS011;66341;52.418;7.382;2023-02-01T19:15:40;8.10;;;7.91;;
73154;SDS011;66341;52.418;7.382;2023-02-01T19:18:07;9.47;;;9.04;;
73154;SDS011;66341;52.418;7.382;2023-02-01T19:20:33;8.58;;;8.46;;
73154;SDS011;66341;52.418;7.382;2023-02-01T19:23:02;9.06;;;8.81;;
73154;SDS011;66341;52.418;7.382;2023-02-01T19:25:28;7.72;;;7.25;;
73154;SDS011;66341;52.418;7.382;2023-02-01T19:27:54;8.17;;;7.67;;
73154;SDS011;66341;52.418;7.382;2023-02-01T19:30:20;16.85;;;16.68;;
73154;SDS011;66341;52.418;7.382;2023-02-01T19:32:47;7.50;;;7.24;;
73154;SDS011;66341;52.418;7.382;2023-02-01T19:35:13;10.20;;;9.44;;
73154;SDS011;66341;52.418;7.382;2023-02-01T19:37:41;7.98;;;7.64;;
73154;SDS011;66341;52.418;7.382;2023-02-01T19:40:08;5.59;;;5.16;;
73154;SDS011;66341;52.418;7.382;2023-02-01T19:42:33;6.63;;;5.51;;
73154;SDS011;66341;52.418;7.382;2023-02-01T19:44:59;9.59;;;8.48;;
73154;SDS011;66341;52.418;7.382;2023-02-01T19:47:25;7.91;;;7.55;;
73154;SDS011;66341;52.418;7.382;2023-02-01T19:49:50;6.33;;;5.48;;
73154;SDS011;66341;52.418;7.382;2023-02-01T19:52:16;7.24;;;5.86;;
73154;SDS011;66341;52.418;7.382;2023-02-01T19:54:41;7.32;;;5.94;;
73154;SDS011;66341;52.418;7.382;2023-02-01T19:57:07;11.17;;;10.31;;
73154;SDS011;66341;52.418;7.382;2023-02-01T19:59:33;7.42;;;7.34;;
73154;SDS011;66341;52.418;7.382;2023-02-01T20:01:58;5.92;;;5.35;;
73154;SDS011;66341;52.418;7.382;2023-02-01T20:04:24;10.52;;;9.45;;
73154;SDS011;66341;52.418;7.382;2023-02-01T20:06:51;8.59;;;8.20;;
73154;SDS011;66341;52.418;7.382;2023-02-01T20:09:21;8.83;;;7.79;;
73154;SDS011;66341;52.418;7.382;2023-02-01T20:11:47;16.23;;;15.01;;
73154;SDS011;66341;52.418;7.382;2023-02-01T20:14:14;12.20;;;12.05;;
73154;SDS011;66341;52.418;7.382;2023-02-01T20:16:40;7.93;;;7.47;;
73154;SDS011;66341;52.418;7.382;2023-02-01T20:19:07;17.26;;;16.88;;
73154;SDS011;66341;52.418;7.382;2023-02-01T20:21:35;9.27;;;9.03;;